EPWAEPGD

Guest
Details From EPWA - Warsaw Okecie - Frederic Chopin
To EPGD - Lech Walesa
Flight Number -
Tags Generated
Created
Modified
Stats Distance 160 nm / 296 km
Max Altitude 0 ft / 0 m
Waypoints 2
Social Downloads 12
Likes 0
Share VATSIM

Download

Looking for another format? Having issues loading an existing format? Contact us
Advertisement - Login to hide

Notes

Generated

Route

EPWA EPGD

ID Type Via Altitude (ft/m) Position (lat/lon) Dist (leg/tot) Name
O EPWA APT - 0 / 0 52.17148 / 20.94671 - / 0 nm
O EPGD APT - 0 / 0 54.38107 / 18.45205 160 / 160 nm

Altitude Profile

Advertisement - Login to hide

EPWA

Details ICAO EPWA (WAW)
Name Warsaw Chopin Airport
Region Poland
Timezone Europe/Warsaw (UTC+1.0)
Stats Elevation 328 ft / 100 m (AMSL)
Location 52.165100° 20.967000°
Runways 2
Magnetic Variation 5.929° E

METAR

EPWA 111030Z 19007KT 9999 BKN016 03/M00 Q1009 NOSIG

Decode

TAF

TAF EPWA 110830Z 1109/1209 18005KT 9999 BKN030 BECMG 1112/1115 12010KT BECMG 1203/1205 06006KT

Decode

Departure Runways

ID Width Length Bearing (true/mag) Surface Threshold Overrun Markings Lighting
11 164 ft / 50 m 9,196 ft / 2,803 m 114.58° / 108.65° CONCRETE 0 ft / 0 m 489 ft / 149 m PREC-APP CENTERLINE EDGE THRESHOLD ALSF-II TDZ REIL-OMNI
15 197 ft / 60 m 12,119 ft / 3,694 m 151.83° / 145.90° CONCRETE 0 ft / 0 m 148 ft / 45 m PREC-APP CENTERLINE EDGE THRESHOLD SSALR REIL-OMNI
29 164 ft / 50 m 9,196 ft / 2,803 m 294.61° / 288.68° CONCRETE 1,627 ft / 496 m 102 ft / 31 m PREC-APP CENTERLINE EDGE THRESHOLD SSALF TDZ REIL-OMNI
33 197 ft / 60 m 12,119 ft / 3,694 m 331.85° / 325.92° CONCRETE 2,175 ft / 663 m 135 ft / 41 m PREC-APP CENTERLINE EDGE THRESHOLD ALSF-II TDZ REIL-OMNI

EPGD

Details ICAO EPGD (GDN)
Name Gdansk Lech Walesa
Region Poland
Timezone Europe/Warsaw (UTC+1.0)
Stats Elevation 488 ft / 149 m (AMSL)
Location 54.376200° 18.471900°
Runways 1
Magnetic Variation 5.587° E

METAR

EPGD 111030Z VRB02KT 9000 -SHRA BKN007 FEW015TCU 03/02 Q1007

Decode

TAF

TAF TAF EPGD 110530Z 1106/1206 VRB03KT 9999 BKN015 TEMPO 1106/1112 3000 SHRA BR BKN004 BKN010CB BECMG 1118/1120 3000 BR TEMPO 1122/1206 1200 BR BKN005 PROB40 1200/1206 0300 FG BKN002

Decode

Destination Runways

ID Width Length Bearing (true/mag) Surface Threshold Overrun Markings Lighting
11 148 ft / 45 m 9,162 ft / 2,793 m 112.97° / 107.39° ASPHALT 0 ft / 0 m 0 ft / 0 m PREC-APP CENTERLINE EDGE THRESHOLD ALSF-II REIL-OMNI
29 148 ft / 45 m 9,162 ft / 2,793 m 293.01° / 287.42° ASPHALT 0 ft / 0 m 0 ft / 0 m PREC-APP CENTERLINE EDGE THRESHOLD ALSF-II REIL-OMNI

Approach Navaids

Runway Type Ident Frequency Range Bearing (true/mag) Slope Elevation
29 LOC-ILS IGDA 110.30 MHz 18 nm / 33 km 292.96° / 287.38 ° - 489 ft / 149 m (AMSL)
29 GS IGDA 110.30 MHz 10 nm / 19 km 293.96° / 288.37 ° 2.90° 489 ft / 149 m (AMSL)
29 DME IGDA 110.30 MHz 18 nm / 33 km - - 492 ft / 150 m (AMSL)
29 OM OM - - 292.98° / 287.39 ° - 489 ft / 149 m (AMSL)

Popular Alternatives